createdAt,value
2024-04-25T04:02:37.054Z,6.38
2024-04-25T04:05:04.212Z,10.90
2024-04-25T04:07:31.243Z,9.57
2024-04-25T04:09:58.251Z,11.67
2024-04-25T04:12:24.945Z,10.13
2024-04-25T04:14:51.602Z,13.02
2024-04-25T04:17:18.364Z,10.65
2024-04-25T04:19:45.147Z,10.77
2024-04-25T04:22:11.849Z,12.07
2024-04-25T04:24:44.394Z,11.50
2024-04-25T04:27:11.928Z,12.55
2024-04-25T04:29:38.835Z,9.98
2024-04-25T04:32:05.708Z,9.85
2024-04-25T04:34:32.469Z,12.00
2024-04-25T04:36:59.103Z,10.50
2024-04-25T04:39:25.872Z,11.45
2024-04-25T04:41:52.564Z,13.48
2024-04-25T04:44:19.334Z,10.75
2024-04-25T04:46:46.200Z,12.97
2024-04-25T04:49:13.011Z,11.35
2024-04-25T04:51:41.990Z,10.10
2024-04-25T04:54:08.959Z,9.43
2024-04-25T04:56:35.637Z,9.98
2024-04-25T04:59:02.361Z,9.40
2024-04-25T05:01:29.103Z,8.75
2024-04-25T05:03:55.958Z,8.30
2024-04-25T05:06:22.778Z,10.57
2024-04-25T05:08:49.590Z,10.00
2024-04-25T05:11:16.338Z,8.20
2024-04-25T05:13:43.220Z,9.32
2024-04-25T05:16:10.905Z,9.85
2024-04-25T05:18:37.705Z,6.82
2024-04-25T05:21:04.887Z,9.00
2024-04-25T05:23:31.655Z,8.07
2024-04-25T05:25:58.335Z,8.93
2024-04-25T05:28:25.058Z,6.25
2024-04-25T05:30:52.087Z,9.45
2024-04-25T05:33:18.845Z,5.38
2024-04-25T05:35:49.345Z,6.43
2024-04-25T05:38:16.272Z,5.38
2024-04-25T05:40:43.035Z,5.20
2024-04-25T05:43:13.285Z,5.70
2024-04-25T05:45:40.836Z,6.57
2024-04-25T05:48:08.051Z,6.80
2024-04-25T05:50:34.906Z,7.10
2024-04-25T05:53:03.683Z,8.30
2024-04-25T05:55:30.430Z,7.78
2024-04-25T05:57:57.162Z,7.53
2024-04-25T06:00:23.847Z,8.33
2024-04-25T06:02:50.751Z,8.40
2024-04-25T06:05:17.498Z,8.07
2024-04-25T06:07:44.472Z,8.20
2024-04-25T06:10:11.306Z,5.72
2024-04-25T06:12:38.138Z,11.90
2024-04-25T06:15:05.167Z,10.48
2024-04-25T06:17:31.980Z,9.25
2024-04-25T06:19:59.167Z,7.20
2024-04-25T06:22:26.030Z,7.47
2024-04-25T06:24:54.757Z,7.83
2024-04-25T06:27:21.881Z,9.90
2024-04-25T06:29:48.647Z,9.77
2024-04-25T06:32:15.450Z,8.60
2024-04-25T06:34:42.201Z,8.52
2024-04-25T06:37:09.879Z,8.30
2024-04-25T06:39:37.133Z,9.25
2024-04-25T06:42:04.008Z,6.18
2024-04-25T06:44:37.222Z,6.10
2024-04-25T06:47:07.635Z,8.20
2024-04-25T06:49:34.569Z,6.43
2024-04-25T06:52:02.802Z,6.55
2024-04-25T06:54:30.469Z,7.80
2024-04-25T06:56:57.569Z,7.32
2024-04-25T06:59:24.283Z,6.25
2024-04-25T07:01:51.749Z,8.60
2024-04-25T07:04:18.584Z,7.50
2024-04-25T07:06:45.287Z,8.70
2024-04-25T07:09:11.958Z,7.38
2024-04-25T07:11:38.943Z,8.23
2024-04-25T07:14:06.020Z,6.13
2024-04-25T07:16:32.801Z,8.35
2024-04-25T07:18:59.594Z,6.82
2024-04-25T07:21:28.670Z,8.80
2024-04-25T07:23:57.943Z,7.03
2024-04-25T07:26:26.150Z,8.37
2024-04-25T07:28:54.826Z,8.75
2024-04-25T07:31:21.552Z,7.50
2024-04-25T07:33:48.513Z,8.23
2024-04-25T07:36:22.464Z,7.75
2024-04-25T07:38:49.641Z,8.77
2024-04-25T07:41:16.493Z,9.07
2024-04-25T07:43:43.234Z,5.75
2024-04-25T07:46:11.149Z,5.60
2024-04-25T07:48:38.143Z,5.38
2024-04-25T07:51:05.276Z,6.33
2024-04-25T07:53:32.165Z,6.07
2024-04-25T07:55:59.324Z,8.35
2024-04-25T07:58:26.131Z,6.95
2024-04-25T08:00:52.838Z,5.68
2024-04-25T08:03:20.228Z,10.63
2024-04-25T08:05:47.712Z,7.35
2024-04-25T08:08:15.929Z,6.78
2024-04-25T08:10:42.811Z,6.97
2024-04-25T08:13:10.359Z,9.18
2024-04-25T08:15:39.166Z,7.40
2024-04-25T08:18:06.248Z,8.60
2024-04-25T08:20:34.275Z,7.45
2024-04-25T08:23:03.867Z,9.10
2024-04-25T08:25:30.614Z,8.25
2024-04-25T08:27:57.332Z,7.13
2024-04-25T08:30:26.044Z,8.00
2024-04-25T08:32:54.405Z,8.20
2024-04-25T08:35:21.610Z,9.15
2024-04-25T08:37:48.436Z,7.45
2024-04-25T08:40:15.436Z,9.17
2024-04-25T08:42:46.075Z,11.32
2024-04-25T08:45:13.933Z,7.85
2024-04-25T08:47:42.278Z,5.57
2024-04-25T08:50:11.160Z,3.55
2024-04-25T08:52:47.539Z,7.57
2024-04-25T08:55:15.394Z,4.53
2024-04-25T08:57:42.172Z,4.22
2024-04-25T09:00:09.251Z,8.25
2024-04-25T09:02:37.128Z,5.03
2024-04-25T09:05:04.514Z,5.37
2024-04-25T09:07:31.332Z,4.25
2024-04-25T09:09:58.624Z,5.90
2024-04-25T09:12:33.922Z,3.22
2024-04-25T09:15:00.848Z,4.10
2024-04-25T09:17:28.208Z,3.90
2024-04-25T09:19:57.662Z,4.60
2024-04-25T09:22:24.544Z,6.97
2024-04-25T09:24:54.565Z,4.82
2024-04-25T09:27:22.645Z,7.40
2024-04-25T09:29:49.538Z,6.33
2024-04-25T09:32:17.323Z,5.60
2024-04-25T09:34:44.033Z,5.93
2024-04-25T09:37:11.079Z,6.68
2024-04-25T09:39:42.567Z,6.38
2024-04-25T09:42:13.354Z,3.93
2024-04-25T09:44:40.967Z,6.10
2024-04-25T09:47:10.765Z,7.20
2024-04-25T09:49:46.538Z,7.65
2024-04-25T09:52:20.838Z,5.43
2024-04-25T09:54:50.115Z,7.83
2024-04-25T09:57:20.714Z,6.30
2024-04-25T10:00:03.493Z,10.13
2024-04-25T10:02:31.066Z,7.03
2024-04-25T10:04:58.074Z,7.90
2024-04-25T10:07:25.920Z,6.87
2024-04-25T10:09:54.163Z,7.43
2024-04-25T10:12:25.628Z,8.45
2024-04-25T10:15:02.657Z,9.80
2024-04-25T10:17:32.265Z,8.68
2024-04-25T10:20:02.594Z,9.07
2024-04-25T10:22:31.199Z,8.23
2024-04-25T10:25:07.569Z,8.32
2024-04-25T10:27:35.842Z,9.68
2024-04-25T10:30:07.975Z,7.45
2024-04-25T10:32:35.299Z,8.37
2024-04-25T10:35:05.054Z,10.60
2024-04-25T10:37:39.227Z,11.50
2024-04-25T10:40:12.913Z,9.20
2024-04-25T10:42:39.884Z,7.68
2024-04-25T10:45:07.586Z,5.70
2024-04-25T10:47:35.307Z,6.22
2024-04-25T10:50:02.806Z,9.32
2024-04-25T10:52:30.526Z,5.15
2024-04-25T10:54:57.388Z,6.95
2024-04-25T10:57:24.101Z,8.00
2024-04-25T10:59:57.733Z,7.95
2024-04-25T11:02:24.552Z,6.80
2024-04-25T11:04:51.312Z,7.45
2024-04-25T11:07:18.562Z,7.07
2024-04-25T11:09:45.497Z,7.27
2024-04-25T11:12:13.828Z,9.32
2024-04-25T11:14:41.143Z,5.93
2024-04-25T11:17:09.149Z,8.05
2024-04-25T11:19:43.413Z,6.10
2024-04-25T11:22:25.932Z,8.13
2024-04-25T11:25:20.836Z,7.45
2024-04-25T11:27:52.186Z,6.35
2024-04-25T11:30:18.954Z,8.48
2024-04-25T11:32:47.119Z,7.80
2024-04-25T11:35:18.239Z,6.13
2024-04-25T11:37:44.960Z,5.88
2024-04-25T11:40:12.003Z,7.10
2024-04-25T11:42:38.899Z,8.38
2024-04-25T11:45:06.925Z,7.97
2024-04-25T11:47:33.759Z,7.03
2024-04-25T11:50:00.603Z,7.35
2024-04-25T11:52:27.267Z,11.90
2024-04-25T11:54:54.038Z,7.20
2024-04-25T11:57:20.782Z,6.55
2024-04-25T11:59:47.507Z,7.73
2024-04-25T12:02:15.560Z,7.22
2024-04-25T12:04:42.476Z,6.82
2024-04-25T12:07:09.326Z,8.48
2024-04-25T12:09:36.068Z,10.95
2024-04-25T12:12:02.905Z,8.03
2024-04-25T12:14:29.668Z,6.80
2024-04-25T12:16:56.476Z,8.57
2024-04-25T12:19:24.224Z,7.72
2024-04-25T12:21:51.180Z,7.22
2024-04-25T12:24:17.909Z,7.23
2024-04-25T12:26:45.945Z,8.13
2024-04-25T12:29:15.246Z,8.00
2024-04-25T12:31:42.127Z,6.78
2024-04-25T12:34:12.763Z,7.55
2024-04-25T12:36:41.016Z,9.60
2024-04-25T12:39:07.800Z,6.40
2024-04-25T12:41:34.584Z,7.60
2024-04-25T12:44:01.408Z,7.35
2024-04-25T12:46:28.119Z,7.72
2024-04-25T12:48:55.060Z,8.60
2024-04-25T12:51:23.564Z,10.27
2024-04-25T12:53:50.482Z,8.27
2024-04-25T12:56:17.531Z,8.80
2024-04-25T12:58:44.309Z,8.88
2024-04-25T13:01:11.218Z,11.40
2024-04-25T13:03:38.173Z,7.28
2024-04-25T13:06:05.254Z,12.52
2024-04-25T13:08:32.048Z,12.18
2024-04-25T13:10:58.864Z,11.48
2024-04-25T13:13:28.047Z,11.30
2024-04-25T13:15:54.954Z,10.50
2024-04-25T13:18:22.383Z,10.48
2024-04-25T13:20:50.005Z,11.23
2024-04-25T13:23:17.911Z,12.10
2024-04-25T13:25:44.740Z,9.30
2024-04-25T13:28:11.398Z,9.15
2024-04-25T13:30:38.216Z,12.55
2024-04-25T13:33:07.726Z,12.20
2024-04-25T13:35:34.860Z,9.30
2024-04-25T13:38:02.408Z,10.73
2024-04-25T13:40:29.308Z,12.07
2024-04-25T13:42:56.115Z,9.38
2024-04-25T13:45:23.872Z,9.95
2024-04-25T13:47:50.842Z,10.40
2024-04-25T13:50:18.579Z,11.07
2024-04-25T13:52:47.204Z,40.22
2024-04-25T13:55:14.147Z,16.58
2024-04-25T13:57:42.432Z,10.05
2024-04-25T14:00:09.789Z,9.05
2024-04-25T14:02:36.548Z,8.97
2024-04-25T14:05:03.376Z,9.88
2024-04-25T14:07:30.044Z,11.95
2024-04-25T14:09:56.825Z,8.60
2024-04-25T14:12:24.849Z,8.27
2024-04-25T14:14:53.396Z,11.73
2024-04-25T14:17:20.147Z,9.05
2024-04-25T14:19:46.881Z,13.52
2024-04-25T14:22:13.802Z,10.27
2024-04-25T14:24:44.649Z,9.52
2024-04-25T14:27:30.041Z,11.33
2024-04-25T14:29:56.829Z,10.05
2024-04-25T14:32:23.747Z,13.40
2024-04-25T14:34:50.896Z,10.98
2024-04-25T14:37:21.307Z,11.10
2024-04-25T14:39:48.040Z,8.07
2024-04-25T14:42:14.774Z,11.30
2024-04-25T14:44:41.718Z,10.40
2024-04-25T14:47:09.112Z,12.15
2024-04-25T14:49:35.920Z,14.05
2024-04-25T14:52:02.720Z,13.40
2024-04-25T14:54:29.511Z,11.13
2024-04-25T14:56:56.284Z,11.65
2024-04-25T14:59:25.147Z,12.85
2024-04-25T15:01:56.073Z,12.65
2024-04-25T15:04:22.954Z,10.90
2024-04-25T15:06:49.627Z,12.48
2024-04-25T15:09:16.319Z,13.18
2024-04-25T15:11:47.067Z,11.48
2024-04-25T15:14:13.931Z,12.85
2024-04-25T15:16:42.160Z,12.20
2024-04-25T15:19:09.017Z,13.02
2024-04-25T15:21:35.744Z,17.73
2024-04-25T15:24:03.676Z,10.40
2024-04-25T15:26:30.453Z,11.20
2024-04-25T15:28:57.182Z,9.67
2024-04-25T15:31:23.931Z,12.35
2024-04-25T15:33:50.661Z,11.95
2024-04-25T15:36:17.471Z,14.48
2024-04-25T15:38:44.185Z,12.48
2024-04-25T15:41:13.665Z,14.60
2024-04-25T15:43:40.446Z,12.50
2024-04-25T15:46:07.262Z,12.43
2024-04-25T15:48:34.130Z,14.38
2024-04-25T15:51:03.173Z,12.55
2024-04-25T15:53:29.943Z,14.60
2024-04-25T15:55:56.742Z,14.65
2024-04-25T15:58:24.935Z,14.15
2024-04-25T16:00:51.877Z,15.43
2024-04-25T16:03:18.657Z,13.63
2024-04-25T16:05:45.456Z,15.93
2024-04-25T16:08:12.571Z,14.25
2024-04-25T16:10:39.437Z,14.70
2024-04-25T16:13:06.165Z,14.07
2024-04-25T16:15:34.542Z,13.55
2024-04-25T16:18:01.679Z,14.83
2024-04-25T16:20:28.442Z,15.68
2024-04-25T16:22:56.253Z,15.52
2024-04-25T16:25:23.348Z,15.77
2024-04-25T16:27:50.055Z,19.55
2024-04-25T16:30:16.848Z,18.17
2024-04-25T16:32:43.738Z,13.68
2024-04-25T16:35:10.473Z,18.63
2024-04-25T16:37:37.199Z,15.43
2024-04-25T16:40:04.229Z,15.15
2024-04-25T16:42:32.434Z,14.90
2024-04-25T16:44:59.168Z,13.75
2024-04-25T16:47:25.939Z,16.35
2024-04-25T16:49:52.669Z,16.85
2024-04-25T16:52:19.437Z,18.83
2024-04-25T16:54:46.230Z,17.97
2024-04-25T16:57:12.903Z,17.13
2024-04-25T16:59:39.792Z,17.08
2024-04-25T17:02:07.375Z,17.27
2024-04-25T17:04:39.979Z,18.13
2024-04-25T17:07:07.487Z,16.07
2024-04-25T17:09:34.813Z,13.77
2024-04-25T17:12:02.328Z,17.08
2024-04-25T17:14:29.179Z,15.00
2024-04-25T17:16:56.021Z,15.80
2024-04-25T17:19:22.766Z,18.10
2024-04-25T17:21:49.469Z,14.50
2024-04-25T17:24:17.030Z,15.35
2024-04-25T17:26:44.110Z,14.10
2024-04-25T17:29:11.851Z,16.60
2024-04-25T17:31:42.117Z,13.13
2024-04-25T17:34:09.317Z,13.88
2024-04-25T17:36:36.286Z,13.68
2024-04-25T17:39:04.491Z,18.08
2024-04-25T17:41:31.610Z,14.65
2024-04-25T17:43:58.332Z,15.23
2024-04-25T17:46:25.193Z,14.10
2024-04-25T17:48:52.201Z,16.00
2024-04-25T17:51:27.116Z,13.20
2024-04-25T17:53:53.872Z,14.95
2024-04-25T17:56:20.595Z,12.87
2024-04-25T17:58:47.385Z,16.95
2024-04-25T18:01:14.239Z,13.73
2024-04-25T18:03:41.122Z,12.02
2024-04-25T18:06:10.559Z,15.30
2024-04-25T18:08:37.371Z,13.27
2024-04-25T18:11:05.099Z,13.82
2024-04-25T18:13:32.763Z,15.30
2024-04-25T18:15:59.475Z,14.88
2024-04-25T18:18:26.378Z,18.05
2024-04-25T18:20:53.177Z,17.23
2024-04-25T18:23:19.902Z,17.85
2024-04-25T18:25:46.626Z,17.58
2024-04-25T18:28:13.526Z,15.95
2024-04-25T18:30:40.214Z,15.30
2024-04-25T18:33:07.089Z,18.37
2024-04-25T18:35:33.907Z,20.98
2024-04-25T18:38:01.236Z,18.92
2024-04-25T18:40:28.988Z,22.23
2024-04-25T18:42:56.120Z,18.02
2024-04-25T18:45:22.961Z,16.83
2024-04-25T18:47:49.743Z,17.88
2024-04-25T18:50:17.941Z,14.73
2024-04-25T18:52:46.533Z,17.50
2024-04-25T18:55:13.279Z,20.25
2024-04-25T18:57:39.995Z,19.10
2024-04-25T19:00:09.751Z,10.80
2024-04-25T19:02:40.793Z,12.43
2024-04-25T19:05:08.669Z,11.02
2024-04-25T19:07:35.862Z,10.02
2024-04-25T19:10:03.650Z,7.80
2024-04-25T19:12:30.753Z,9.18
2024-04-25T19:14:57.516Z,10.77
2024-04-25T19:17:26.042Z,9.82
2024-04-25T19:19:53.090Z,8.98
2024-04-25T19:22:24.295Z,9.33
2024-04-25T19:24:53.711Z,8.75
2024-04-25T19:27:21.244Z,10.20
2024-04-25T19:29:53.117Z,13.27
2024-04-25T19:32:20.409Z,9.43
2024-04-25T19:34:58.012Z,12.80
2024-04-25T19:37:25.353Z,8.98
2024-04-25T19:39:53.717Z,10.02
2024-04-25T19:42:23.671Z,11.13
2024-04-25T19:44:53.336Z,11.93
2024-04-25T19:47:20.062Z,11.43
2024-04-25T19:49:46.795Z,12.48
2024-04-25T19:52:14.069Z,13.43
2024-04-25T19:54:43.559Z,13.68
2024-04-25T19:57:10.284Z,16.35
2024-04-25T19:59:40.488Z,14.53
2024-04-25T20:02:07.208Z,14.05
2024-04-25T20:04:37.580Z,14.18
2024-04-25T20:07:04.453Z,15.48
2024-04-25T20:09:31.141Z,12.48
2024-04-25T20:11:58.496Z,13.47
2024-04-25T20:14:25.258Z,13.32
2024-04-25T20:16:51.947Z,12.27
2024-04-25T20:19:37.597Z,10.38
2024-04-25T20:22:15.428Z,11.65
2024-04-25T20:24:43.789Z,15.17
2024-04-25T20:27:10.475Z,12.07
2024-04-25T20:29:37.243Z,11.68
2024-04-25T20:32:04.137Z,11.90
2024-04-25T20:34:31.120Z,11.35
2024-04-25T20:36:57.883Z,10.60
2024-04-25T20:39:24.594Z,12.63
2024-04-25T20:41:51.344Z,13.65
2024-04-25T20:44:18.356Z,12.38
2024-04-25T20:46:45.362Z,13.38
2024-04-25T20:49:12.215Z,9.90
2024-04-25T20:51:41.099Z,14.43
2024-04-25T20:54:09.166Z,13.52
2024-04-25T20:56:40.340Z,14.25
2024-04-25T20:59:07.008Z,14.93
2024-04-25T21:01:37.544Z,12.13
2024-04-25T21:04:04.718Z,14.00
2024-04-25T21:06:31.463Z,15.48
2024-04-25T21:08:58.269Z,14.27
2024-04-25T21:11:25.548Z,15.77
2024-04-25T21:13:55.236Z,14.50
2024-04-25T21:16:26.207Z,17.38
2024-04-25T21:18:52.970Z,14.73
2024-04-25T21:21:19.691Z,15.00
2024-04-25T21:23:46.391Z,16.58
2024-04-25T21:26:13.090Z,14.07
2024-04-25T21:28:39.785Z,17.65
2024-04-25T21:31:06.457Z,15.23
2024-04-25T21:33:34.566Z,17.27
2024-04-25T21:36:01.432Z,19.60
2024-04-25T21:38:28.098Z,16.03
2024-04-25T21:40:55.875Z,16.90
2024-04-25T21:43:24.970Z,23.35
2024-04-25T21:45:51.815Z,19.50
2024-04-25T21:48:22.582Z,17.70
2024-04-25T21:50:49.639Z,18.63
2024-04-25T21:53:16.452Z,18.55
2024-04-25T21:55:43.281Z,18.98
2024-04-25T21:58:10.048Z,19.48
